| time (UTC) | temp C | wind direction | speed KPH | gust KPH | rain 1hr cm | rain 24hr cm | rain mn cm | humidity % | barometer mb |
| 20260503220536 | 10 | 70 | 9.7 | 20.9 | 0.00 | 0.00 | 0.00 | 84 | 1026.9 |
| 20260503220043 | 10 | 64 | 8.0 | 20.9 | 0.00 | 0.00 | 0.00 | 84 | 1027.0 |
| 20260503215536 | 10 | 72 | 6.4 | 17.7 | 0.00 | 0.00 | 0.00 | 84 | 1026.8 |
| 20260503215036 | 10 | 87 | 8.0 | 20.9 | 0.00 | 0.00 | 0.00 | 84 | 1026.8 |
| 20260503214542 | 10 | 112 | 9.7 | 20.9 | 0.00 | 0.00 | 0.00 | 84 | 1026.8 |
| 20260503214035 | 10 | 86 | 8.0 | 19.3 | 0.00 | 0.00 | 0.00 | 84 | 1026.7 |
| 20260503213535 | 10 | 97 | 8.0 | 19.3 | 0.00 | 0.00 | 0.00 | 83 | 1026.8 |
| 20260503213040 | 10 | 83 | 8.0 | 19.3 | 0.00 | 0.00 | 0.00 | 83 | 1026.8 |
| 20260503212535 | 11 | 98 | 9.7 | 19.3 | 0.00 | 0.00 | 0.00 | 83 | 1026.7 |
| 20260503212034 | 11 | 67 | 9.7 | 19.3 | 0.00 | 0.00 | 0.00 | 82 | 1026.8 |
| 20260503211606 | 11 | 64 | 9.7 | 19.3 | 0.00 | 0.00 | 0.00 | 82 | 1026.7 |
| 20260503211036 | 11 | 115 | 8.0 | 22.5 | 0.00 | 0.00 | 0.00 | 82 | 1026.7 |
| 20260503210536 | 11 | 74 | 9.7 | 24.1 | 0.00 | 0.00 | 0.00 | 82 | 1026.6 |
| 20260503210044 | 11 | 91 | 11.3 | 24.1 | 0.00 | 0.00 | 0.00 | 82 | 1026.5 |
| 20260503205536 | 11 | 105 | 9.7 | 24.1 | 0.00 | 0.00 | 0.00 | 81 | 1026.6 |
| 20260503205036 | 11 | 78 | 11.3 | 24.1 | 0.00 | 0.00 | 0.00 | 81 | 1026.5 |
| 20260503204540 | 11 | 101 | 11.3 | 22.5 | 0.00 | 0.00 | 0.00 | 81 | 1026.3 |
| 20260503204036 | 11 | 116 | 9.7 | 25.7 | 0.00 | 0.00 | 0.00 | 81 | 1026.4 |
| 20260503203536 | 11 | 64 | 11.3 | 25.7 | 0.00 | 0.00 | 0.00 | 81 | 1026.3 |
| 20260503203052 | 11 | 98 | 12.9 | 25.7 | 0.00 | 0.00 | 0.00 | 80 | 1026.4 |
| 20260503202536 | 11 | 135 | 9.7 | 20.9 | 0.00 | 0.00 | 0.00 | 80 | 1026.3 |
| 20260503202036 | 11 | 126 | 8.0 | 19.3 | 0.00 | 0.00 | 0.00 | 80 | 1026.3 |
| 20260503201544 | 11 | 143 | 8.0 | 16.1 | 0.00 | 0.00 | 0.00 | 79 | 1026.4 |
| 20260503201039 | 11 | 93 | 6.4 | 19.3 | 0.00 | 0.00 | 0.00 | 79 | 1026.4 |
| 20260503200536 | 11 | 101 | 6.4 | 19.3 | 0.00 | 0.00 | 0.00 | 78 | 1026.4 |
| 20260503200056 | 11 | 126 | 6.4 | 17.7 | 0.00 | 0.00 | 0.00 | 78 | 1026.4 |
| 20260503195536 | 11 | 58 | 6.4 | 19.3 | 0.00 | 0.00 | 0.00 | 78 | 1026.5 |
| 20260503195036 | 11 | 106 | 4.8 | 19.3 | 0.00 | 0.00 | 0.00 | 78 | 1026.5 |
| 20260503194545 | 11 | 85 | 4.8 | 16.1 | 0.00 | 0.00 | 0.00 | 77 | 1026.5 |
| 20260503194036 | 11 | 127 | 6.4 | 19.3 | 0.00 | 0.00 | 0.00 | 77 | 1026.5 |
| 20260503193536 | 11 | 96 | 6.4 | 19.3 | 0.00 | 0.00 | 0.00 | 77 | 1026.4 |
| 20260503193056 | 11 | 101 | 6.4 | 16.1 | 0.00 | 0.00 | 0.00 | 76 | 1026.5 |
| 20260503192536 | 11 | 95 | 6.4 | 16.1 | 0.00 | 0.00 | 0.00 | 77 | 1026.5 |
| 20260503192036 | 11 | 115 | 6.4 | 16.1 | 0.00 | 0.00 | 0.00 | 76 | 1026.4 |
| 20260503191554 | 11 | 71 | 6.4 | 16.1 | 0.00 | 0.00 | 0.00 | 76 | 1026.4 |
| 20260503191037 | 11 | 97 | 6.4 | 16.1 | 0.00 | 0.00 | 0.00 | 76 | 1026.4 |
| 20260503190536 | 12 | 85 | 6.4 | 16.1 | 0.00 | 0.00 | 0.00 | 76 | 1026.4 |
| 20260503190049 | 12 | 92 | 4.8 | 16.1 | 0.00 | 0.00 | 0.00 | 76 | 1026.5 |
| 20260503185535 | 12 | 104 | 6.4 | 16.1 | 0.00 | 0.00 | 0.00 | 76 | 1026.4 |
| 20260503185037 | 12 | 92 | 6.4 | 16.1 | 0.00 | 0.00 | 0.00 | 76 | 1026.4 |
| 20260503184558 | 12 | 103 | 8.0 | 16.1 | 0.00 | 0.00 | 0.00 | 76 | 1026.3 |
| 20260503184036 | 12 | 110 | 8.0 | 16.1 | 0.00 | 0.00 | 0.00 | 76 | 1026.3 |
| 20260503183536 | 12 | 85 | 6.4 | 16.1 | 0.00 | 0.00 | 0.00 | 76 | 1026.2 |
| 20260503183052 | 12 | 85 | 6.4 | 12.9 | 0.00 | 0.00 | 0.00 | 76 | 1026.4 |
| 20260503182538 | 12 | 82 | 6.4 | 12.9 | 0.00 | 0.00 | 0.00 | 76 | 1026.4 |
| 20260503182035 | 12 | 64 | 6.4 | 12.9 | 0.00 | 0.00 | 0.00 | 76 | 1026.3 |
| 20260503181559 | 12 | 83 | 4.8 | 12.9 | 0.00 | 0.00 | 0.00 | 76 | 1026.5 |
| 20260503181036 | 12 | 135 | 6.4 | 12.9 | 0.00 | 0.00 | 0.00 | 76 | 1026.4 |
| 20260503180536 | 12 | 85 | 4.8 | 12.9 | 0.00 | 0.00 | 0.00 | 76 | 1026.6 |
| 20260503180050 | 12 | 90 | 4.8 | 12.9 | 0.00 | 0.00 | 0.00 | 76 | 1026.6 |
| 20260503175536 | 12 | 72 | 3.2 | 9.7 | 0.00 | 0.00 | 0.00 | 76 | 1026.6 |
| 20260503175035 | 12 | 121 | 0.0 | 9.7 | 0.00 | 0.00 | 0.00 | 76 | 1026.7 |
| 20260503174555 | 12 | 85 | 1.6 | 6.4 | 0.00 | 0.00 | 0.00 | 75 | 1026.8 |
| 20260503174035 | 12 | 78 | 0.0 | 8.0 | 0.00 | 0.00 | 0.00 | 75 | 1026.7 |
| 20260503173535 | 12 | 0 | 0.0 | 8.0 | 0.00 | 0.00 | 0.00 | 74 | 1026.7 |
| 20260503173055 | 12 | 96 | 0.0 | 6.4 | 0.00 | 0.00 | 0.00 | 75 | 1026.6 |
| 20260503172535 | 12 | 0 | 0.0 | 9.7 | 0.00 | 0.00 | 0.00 | 74 | 1026.7 |
| 20260503172034 | 12 | 122 | 0.0 | 9.7 | 0.00 | 0.00 | 0.00 | 74 | 1026.6 |
| 20260503171540 | 12 | 137 | 1.6 | 9.7 | 0.00 | 0.00 | 0.00 | 75 | 1026.5 |
| 20260503171036 | 12 | 152 | 3.2 | 9.7 | 0.00 | 0.00 | 0.00 | 74 | 1026.7 |
| 20260503170535 | 12 | 175 | 1.6 | 6.4 | 0.00 | 0.00 | 0.00 | 74 | 1026.7 |
| 20260503150535 | 13 | 86 | 6.4 | 20.9 | 0.00 | 0.00 | 0.00 | 73 | 1026.0 |
| 20260503131034 | 13 | 140 | 0.0 | 3.2 | 0.00 | 0.00 | 0.00 | 72 | 1026.2 |
| 20260503130535 | 13 | 0 | 0.0 | 4.8 | 0.00 | 0.00 | 0.00 | 72 | 1026.2 |
| 20260503110535 | 13 | 0 | 0.0 | 1.6 | 0.00 | 0.00 | 0.00 | 77 | 1025.7 |
| 20260503081546 | 18 | 164 | 1.6 | 11.3 | 0.00 | 0.00 | 0.00 | 59 | 1024.5 |
| 20260503081035 | 18 | 0 | 1.6 | 11.3 | 0.00 | 0.00 | 0.00 | 59 | 1024.5 |
| 20260503080536 | 18 | 0 | 1.6 | 14.5 | 0.00 | 0.00 | 0.00 | 59 | 1024.3 |
| 20260503072537 | 19 | 0 | 1.6 | 11.3 | 0.00 | 0.00 | 0.00 | 58 | 1024.3 |
| 20260503072035 | 18 | 70 | 4.8 | 11.3 | 0.00 | 0.00 | 0.00 | 59 | 1024.4 |
| 20260503071545 | 19 | 241 | 0.0 | 14.5 | 0.00 | 0.00 | 0.00 | 57 | 1024.5 |
| 20260503071038 | 19 | 61 | 1.6 | 14.5 | 0.00 | 0.00 | 0.00 | 58 | 1024.5 |
| 20260503070534 | 19 | 47 | 3.2 | 11.3 | 0.00 | 0.00 | 0.00 | 58 | 1024.4 |
| 20260503055042 | 17 | 0 | 8.0 | 22.5 | 0.00 | 0.00 | 0.00 | 64 | 1024.8 |
| 20260503054542 | 18 | 72 | 3.2 | 17.7 | 0.00 | 0.00 | 0.00 | 63 | 1024.7 |
| 20260503054035 | 18 | 37 | 3.2 | 17.7 | 0.00 | 0.00 | 0.00 | 63 | 1024.9 |
| 20260503053535 | 18 | 60 | 4.8 | 17.7 | 0.00 | 0.00 | 0.00 | 62 | 1024.8 |
| 20260503053042 | 18 | 151 | 4.8 | 14.5 | 0.00 | 0.00 | 0.00 | 63 | 1024.8 |
| 20260503052536 | 18 | 110 | 3.2 | 14.5 | 0.00 | 0.00 | 0.00 | 64 | 1024.8 |
| 20260503052036 | 18 | 86 | 4.8 | 17.7 | 0.00 | 0.00 | 0.00 | 63 | 1024.9 |
| 20260503051540 | 18 | 81 | 1.6 | 17.7 | 0.00 | 0.00 | 0.00 | 64 | 1024.9 |
| 20260503051037 | 17 | 97 | 6.4 | 17.7 | 0.00 | 0.00 | 0.00 | 66 | 1025.1 |
| 20260503050535 | 17 | 59 | 3.2 | 16.1 | 0.00 | 0.00 | 0.00 | 66 | 1025.0 |
| 20260503050040 | 17 | 52 | 1.6 | 12.9 | 0.00 | 0.00 | 0.00 | 66 | 1025.3 |
| 20260503045537 | 18 | 170 | 3.2 | 12.9 | 0.00 | 0.00 | 0.00 | 66 | 1025.3 |
| 20260503045035 | 17 | 0 | 3.2 | 12.9 | 0.00 | 0.00 | 0.00 | 67 | 1025.4 |
| 20260503044535 | 17 | 113 | 1.6 | 14.5 | 0.00 | 0.00 | 0.00 | 68 | 1025.5 |
| 20260503044034 | 17 | 93 | 4.8 | 17.7 | 0.00 | 0.00 | 0.00 | 69 | 1025.6 |
| 20260503043534 | 17 | 56 | 4.8 | 17.7 | 0.00 | 0.00 | 0.00 | 69 | 1025.7 |
| 20260503043042 | 17 | 185 | 3.2 | 16.1 | 0.00 | 0.00 | 0.00 | 70 | 1025.8 |
| 20260503042536 | 16 | 43 | 3.2 | 16.1 | 0.00 | 0.00 | 0.00 | 70 | 1026.0 |
| 20260503042035 | 16 | 86 | 6.4 | 20.9 | 0.00 | 0.00 | 0.00 | 70 | 1026.0 |
| 20260503041539 | 16 | 95 | 6.4 | 22.5 | 0.00 | 0.00 | 0.00 | 71 | 1026.1 |
| 20260503041035 | 16 | 74 | 8.0 | 22.5 | 0.00 | 0.00 | 0.00 | 71 | 1026.0 |
| 20260503040534 | 16 | 123 | 6.4 | 22.5 | 0.00 | 0.00 | 0.00 | 72 | 1026.1 |
| 20260503040040 | 15 | 0 | 3.2 | 22.5 | 0.00 | 0.00 | 0.00 | 75 | 1026.2 |
| 20260503035534 | 15 | 113 | 6.4 | 22.5 | 0.00 | 0.00 | 0.00 | 73 | 1026.1 |
| 20260503035034 | 15 | 37 | 6.4 | 20.9 | 0.00 | 0.00 | 0.00 | 74 | 1026.1 |
| 20260503034538 | 15 | 56 | 4.8 | 20.9 | 0.00 | 0.00 | 0.00 | 74 | 1026.2 |
| 20260503034034 | 15 | 69 | 6.4 | 22.5 | 0.00 | 0.00 | 0.00 | 74 | 1026.2 |
| 20260503033534 | 15 | 85 | 8.0 | 22.5 | 0.00 | 0.00 | 0.00 | 75 | 1026.2 |
| 20260503033046 | 15 | 140 | 6.4 | 19.3 | 0.00 | 0.00 | 0.00 | 76 | 1026.3 |
| 20260503032535 | 14 | 112 | 4.8 | 24.1 | 0.00 | 0.00 | 0.00 | 77 | 1026.5 |
| 20260503032037 | 13 | 120 | 9.7 | 24.1 | 0.00 | 0.00 | 0.00 | 79 | 1026.5 |
| 20260503031542 | 13 | 93 | 8.0 | 20.9 | 0.00 | 0.00 | 0.00 | 79 | 1026.7 |
| 20260503031035 | 13 | 73 | 9.7 | 27.4 | 0.00 | 0.00 | 0.00 | 80 | 1026.7 |
| 20260503030535 | 12 | 86 | 9.7 | 27.4 | 0.00 | 0.00 | 0.00 | 80 | 1026.7 |
| 20260503030059 | 12 | 70 | 12.9 | 27.4 | 0.00 | 0.00 | 0.00 | 80 | 1026.7 |
| 20260503025534 | 12 | 70 | 9.7 | 24.1 | 0.00 | 0.00 | 0.00 | 80 | 1026.6 |
| 20260503025034 | 12 | 70 | 11.3 | 24.1 | 0.00 | 0.00 | 0.00 | 82 | 1026.8 |
| 20260503024541 | 12 | 91 | 11.3 | 22.5 | 0.00 | 0.00 | 0.00 | 81 | 1026.8 |
| 20260503024034 | 12 | 72 | 8.0 | 22.5 | 0.00 | 0.00 | 0.00 | 82 | 1026.9 |
| 20260503023534 | 11 | 93 | 11.3 | 27.4 | 0.00 | 0.00 | 0.00 | 82 | 1026.9 |
| 20260503023039 | 11 | 62 | 9.7 | 27.4 | 0.00 | 0.00 | 0.00 | 81 | 1026.8 |
| 20260503022535 | 12 | 79 | 6.4 | 22.5 | 0.00 | 0.00 | 0.00 | 82 | 1027.0 |
| 20260503022035 | 12 | 76 | 9.7 | 22.5 | 0.00 | 0.00 | 0.00 | 81 | 1026.8 |
| 20260503021543 | 11 | 95 | 9.7 | 22.5 | 0.00 | 0.00 | 0.00 | 81 | 1026.8 |
| 20260503021035 | 11 | 121 | 9.7 | 25.7 | 0.00 | 0.00 | 0.00 | 82 | 1026.7 |
| 20260503020535 | 11 | 73 | 12.9 | 25.7 | 0.00 | 0.00 | 0.00 | 81 | 1026.9 |
| 20260503020043 | 11 | 81 | 11.3 | 22.5 | 0.00 | 0.00 | 0.00 | 81 | 1026.9 |
| 20260503015535 | 11 | 56 | 9.7 | 22.5 | 0.00 | 0.00 | 0.00 | 80 | 1026.8 |
| 20260503015034 | 12 | 64 | 11.3 | 24.1 | 0.00 | 0.00 | 0.00 | 80 | 1026.8 |
| 20260503014556 | 12 | 164 | 8.0 | 24.1 | 0.00 | 0.00 | 0.00 | 80 | 1026.7 |
| 20260503014034 | 11 | 91 | 12.9 | 24.1 | 0.00 | 0.00 | 0.00 | 80 | 1026.7 |
| 20260503013535 | 11 | 55 | 9.7 | 29.0 | 0.00 | 0.00 | 0.00 | 81 | 1026.6 |
| 20260503013039 | 11 | 99 | 11.3 | 29.0 | 0.00 | 0.00 | 0.00 | 80 | 1026.8 |
| 20260503012535 | 12 | 61 | 8.0 | 22.5 | 0.00 | 0.00 | 0.00 | 80 | 1026.8 |
| 20260503012034 | 12 | 81 | 9.7 | 19.3 | 0.00 | 0.00 | 0.00 | 81 | 1026.8 |
| 20260503011542 | 12 | 93 | 8.0 | 20.9 | 0.00 | 0.00 | 0.00 | 80 | 1026.8 |
| 20260503011036 | 12 | 101 | 8.0 | 20.9 | 0.00 | 0.00 | 0.00 | 79 | 1026.7 |
| 20260503010536 | 12 | 141 | 8.0 | 19.3 | 0.00 | 0.00 | 0.00 | 79 | 1026.7 |
| 20260503010037 | 12 | 85 | 6.4 | 14.5 | 0.00 | 0.00 | 0.00 | 79 | 1026.7 |
| 20260503005538 | 12 | 73 | 6.4 | 14.5 | 0.00 | 0.00 | 0.00 | 80 | 1026.6 |
| 20260503005035 | 12 | 97 | 4.8 | 19.3 | 0.00 | 0.00 | 0.00 | 80 | 1026.6 |
| 20260503004539 | 13 | 71 | 4.8 | 19.3 | 0.00 | 0.00 | 0.00 | 80 | 1026.6 |
| 20260503004034 | 12 | 127 | 6.4 | 19.3 | 0.00 | 0.00 | 0.00 | 80 | 1026.6 |
| 20260503003534 | 12 | 90 | 4.8 | 14.5 | 0.00 | 0.00 | 0.00 | 81 | 1026.5 |
| 20260503003059 | 12 | 153 | 3.2 | 14.5 | 0.00 | 0.00 | 0.00 | 82 | 1026.6 |
| 20260503002536 | 12 | 77 | 4.8 | 14.5 | 0.00 | 0.00 | 0.00 | 82 | 1026.7 |
| 20260503002036 | 12 | 123 | 4.8 | 16.1 | 0.00 | 0.00 | 0.00 | 83 | 1026.6 |
| 20260503001556 | 11 | 106 | 6.4 | 16.1 | 0.00 | 0.00 | 0.00 | 84 | 1026.5 |
| 20260503001039 | 11 | 101 | 4.8 | 14.5 | 0.00 | 0.00 | 0.00 | 84 | 1026.5 |
| 20260503000534 | 11 | 97 | 3.2 | 11.3 | 0.00 | 0.00 | 0.00 | 84 | 1026.4 |
| 20260503000056 | 11 | 116 | 3.2 | 11.3 | 0.00 | 0.00 | 0.00 | 84 | 1026.4 |
| 20260502235535 | 11 | 60 | 1.6 | 11.3 | 0.00 | 0.00 | 0.00 | 84 | 1026.4 |
| 20260502235035 | 11 | 124 | 3.2 | 9.7 | 0.00 | 0.00 | 0.00 | 84 | 1026.4 |
| 20260502234542 | 11 | 79 | 1.6 | 9.7 | 0.00 | 0.00 | 0.00 | 84 | 1026.2 |
| 20260502234035 | 11 | 79 | 1.6 | 6.4 | 0.00 | 0.00 | 0.00 | 84 | 1026.1 |
| 20260502233534 | 11 | 120 | 3.2 | 6.4 | 0.00 | 0.00 | 0.00 | 83 | 1026.1 |
| 20260502233042 | 11 | 130 | 1.6 | 11.3 | 0.00 | 0.00 | 0.00 | 83 | 1026.0 |
| 20260502232534 | 11 | 104 | 3.2 | 12.9 | 0.00 | 0.00 | 0.00 | 83 | 1026.1 |
| 20260502232034 | 10 | 111 | 3.2 | 12.9 | 0.00 | 0.00 | 0.00 | 83 | 1025.9 |
| 20260502231539 | 10 | 110 | 3.2 | 8.0 | 0.00 | 0.00 | 0.00 | 83 | 1025.9 |
| 20260502231034 | 10 | 115 | 3.2 | 8.0 | 0.00 | 0.00 | 0.00 | 83 | 1025.8 |
| 20260502230535 | 10 | 131 | 3.2 | 6.4 | 0.00 | 0.00 | 0.00 | 83 | 1025.8 |
| 20260502230041 | 10 | 133 | 1.6 | 6.4 | 0.00 | 0.00 | 0.00 | 83 | 1025.7 |
| 20260502225534 | 10 | 106 | 1.6 | 4.8 | 0.00 | 0.00 | 0.00 | 83 | 1025.6 |
| 20260502225034 | 10 | 116 | 1.6 | 6.4 | 0.00 | 0.00 | 0.00 | 83 | 1025.6 |
| 20260502224538 | 10 | 125 | 1.6 | 6.4 | 0.00 | 0.00 | 0.00 | 83 | 1025.5 |
| 20260502224035 | 10 | 120 | 1.6 | 6.4 | 0.00 | 0.00 | 0.00 | 84 | 1025.5 |
| 20260502223538 | 10 | 0 | 0.0 | 4.8 | 0.00 | 0.00 | 0.00 | 84 | 1025.5 |
| 20260502223042 | 10 | 0 | 0.0 | 6.4 | 0.00 | 0.00 | 0.00 | 84 | 1025.5 |
| 20260502222534 | 10 | 0 | 1.6 | 6.4 | 0.00 | 0.00 | 0.00 | 84 | 1025.5 |
| 20260502222037 | 10 | 0 | 0.0 | 4.8 | 0.00 | 0.00 | 0.00 | 83 | 1025.4 |
| 20260502221539 | 10 | 0 | 0.0 | 4.8 | 0.00 | 0.00 | 0.00 | 83 | 1025.2 |
| 20260502221037 | 10 | 0 | 0.0 | 3.2 | 0.00 | 0.00 | 0.00 | 83 | 1025.4 |